Terminal Aerodrome Forecast
Issued by NWS

Home | Current Version | Previous Version | Text Only | Print | Product List | Glossary On
Versions: 1 2 3 4 5 6 7 8 9 10 11 12 13 14 15 16
000
FTUS45 KABQ 180500
TAFTCC
TAF
KTCC 180528Z 1806/1906 18005KT P6SM SKC
     FM182100 18010G20KT P6SM VCSH OVC050
     FM190000 15010KT P6SM SCT025 OVC040
     FM190300 21010KT P6SM VCFG SCT007 OVC040=

USA.gov is the U.S. government's official web portal to all federal, state and local government web resources and services.